sensor_id;sensor_type;location;lat;lon;timestamp;temperature;humidity
48604;DHT22;32708;51.212;6.788;2023-05-21T00:01:51;15.70;77.50
48604;DHT22;32708;51.212;6.788;2023-05-21T00:04:18;15.70;77.10
48604;DHT22;32708;51.212;6.788;2023-05-21T00:06:45;15.70;77.00
48604;DHT22;32708;51.212;6.788;2023-05-21T00:09:11;15.60;85.70
48604;DHT22;32708;51.212;6.788;2023-05-21T00:11:38;15.70;80.50
48604;DHT22;32708;51.212;6.788;2023-05-21T00:14:04;15.70;78.50
48604;DHT22;32708;51.212;6.788;2023-05-21T00:16:30;15.70;81.20
48604;DHT22;32708;51.212;6.788;2023-05-21T00:18:56;15.50;87.20
48604;DHT22;32708;51.212;6.788;2023-05-21T00:21:22;15.60;84.10
48604;DHT22;32708;51.212;6.788;2023-05-21T00:23:52;15.60;84.60
48604;DHT22;32708;51.212;6.788;2023-05-21T00:26:22;15.60;85.10
48604;DHT22;32708;51.212;6.788;2023-05-21T00:28:55;15.70;82.90
48604;DHT22;32708;51.212;6.788;2023-05-21T00:31:21;15.60;83.10
48604;DHT22;32708;51.212;6.788;2023-05-21T00:33:50;15.40;90.60
48604;DHT22;32708;51.212;6.788;2023-05-21T00:36:16;15.40;90.70
48604;DHT22;32708;51.212;6.788;2023-05-21T00:38:43;15.40;91.70
48604;DHT22;32708;51.212;6.788;2023-05-21T00:41:10;15.40;91.40
48604;DHT22;32708;51.212;6.788;2023-05-21T00:43:37;15.50;89.50
48604;DHT22;32708;51.212;6.788;2023-05-21T00:46:16;15.40;90.70
48604;DHT22;32708;51.212;6.788;2023-05-21T00:48:45;15.40;91.80
48604;DHT22;32708;51.212;6.788;2023-05-21T00:51:14;15.30;92.30
48604;DHT22;32708;51.212;6.788;2023-05-21T00:53:44;15.40;90.00
48604;DHT22;32708;51.212;6.788;2023-05-21T00:56:11;15.20;92.80
48604;DHT22;32708;51.212;6.788;2023-05-21T00:58:38;15.20;92.60
48604;DHT22;32708;51.212;6.788;2023-05-21T01:01:05;15.30;92.10
48604;DHT22;32708;51.212;6.788;2023-05-21T01:03:34;15.30;93.00
48604;DHT22;32708;51.212;6.788;2023-05-21T01:06:04;15.40;90.90
48604;DHT22;32708;51.212;6.788;2023-05-21T01:08:32;15.30;94.30
48604;DHT22;32708;51.212;6.788;2023-05-21T01:11:10;15.30;93.20
48604;DHT22;32708;51.212;6.788;2023-05-21T01:13:38;15.30;94.00
48604;DHT22;32708;51.212;6.788;2023-05-21T01:16:08;15.40;91.30
48604;DHT22;32708;51.212;6.788;2023-05-21T01:18:36;15.10;95.90
48604;DHT22;32708;51.212;6.788;2023-05-21T01:21:04;15.10;96.10
48604;DHT22;32708;51.212;6.788;2023-05-21T01:23:32;15.00;98.80
48604;DHT22;32708;51.212;6.788;2023-05-21T01:25:59;15.00;98.70
48604;DHT22;32708;51.212;6.788;2023-05-21T01:28:25;15.00;99.90
48604;DHT22;32708;51.212;6.788;2023-05-21T01:30:51;15.00;98.70
48604;DHT22;32708;51.212;6.788;2023-05-21T01:33:42;14.80;99.90
48604;DHT22;32708;51.212;6.788;2023-05-21T01:36:25;14.90;99.60
48604;DHT22;32708;51.212;6.788;2023-05-21T01:39:12;14.90;99.60
48604;DHT22;32708;51.212;6.788;2023-05-21T01:41:45;15.00;99.90
48604;DHT22;32708;51.212;6.788;2023-05-21T01:44:18;14.90;99.90
48604;DHT22;32708;51.212;6.788;2023-05-21T01:46:44;15.00;99.90
48604;DHT22;32708;51.212;6.788;2023-05-21T01:49:11;15.00;98.10
48604;DHT22;32708;51.212;6.788;2023-05-21T01:51:39;14.90;99.80
48604;DHT22;32708;51.212;6.788;2023-05-21T01:54:05;14.80;99.90
48604;DHT22;32708;51.212;6.788;2023-05-21T01:56:31;14.70;99.90
48604;DHT22;32708;51.212;6.788;2023-05-21T01:58:58;14.70;99.90
48604;DHT22;32708;51.212;6.788;2023-05-21T02:01:25;14.80;99.90
48604;DHT22;32708;51.212;6.788;2023-05-21T02:03:55;14.80;99.90
48604;DHT22;32708;51.212;6.788;2023-05-21T02:06:22;14.80;99.50
48604;DHT22;32708;51.212;6.788;2023-05-21T02:08:49;15.00;96.50
48604;DHT22;32708;51.212;6.788;2023-05-21T02:11:15;14.90;98.40
48604;DHT22;32708;51.212;6.788;2023-05-21T02:13:42;14.90;97.20
48604;DHT22;32708;51.212;6.788;2023-05-21T02:16:08;14.80;98.60
48604;DHT22;32708;51.212;6.788;2023-05-21T02:18:40;14.80;98.60
48604;DHT22;32708;51.212;6.788;2023-05-21T02:21:09;14.80;98.90
48604;DHT22;32708;51.212;6.788;2023-05-21T02:23:38;14.90;98.70
48604;DHT22;32708;51.212;6.788;2023-05-21T02:26:04;14.80;97.50
48604;DHT22;32708;51.212;6.788;2023-05-21T02:28:30;14.80;98.50
48604;DHT22;32708;51.212;6.788;2023-05-21T02:30:57;14.60;99.90
48604;DHT22;32708;51.212;6.788;2023-05-21T02:33:24;14.80;99.30
48604;DHT22;32708;51.212;6.788;2023-05-21T02:35:50;14.60;99.90
48604;DHT22;32708;51.212;6.788;2023-05-21T02:38:17;14.60;99.90
48604;DHT22;32708;51.212;6.788;2023-05-21T02:40:45;14.50;99.90
48604;DHT22;32708;51.212;6.788;2023-05-21T02:43:11;14.50;99.90
48604;DHT22;32708;51.212;6.788;2023-05-21T02:45:37;14.60;99.90
48604;DHT22;32708;51.212;6.788;2023-05-21T02:48:03;14.60;99.90
48604;DHT22;32708;51.212;6.788;2023-05-21T02:50:34;14.60;99.90
48604;DHT22;32708;51.212;6.788;2023-05-21T02:53:00;14.70;99.90
48604;DHT22;32708;51.212;6.788;2023-05-21T02:55:27;14.60;99.90
48604;DHT22;32708;51.212;6.788;2023-05-21T02:57:53;14.60;99.90
48604;DHT22;32708;51.212;6.788;2023-05-21T03:00:19;14.50;99.90
48604;DHT22;32708;51.212;6.788;2023-05-21T03:02:46;14.40;99.90
48604;DHT22;32708;51.212;6.788;2023-05-21T03:05:12;14.40;99.90
48604;DHT22;32708;51.212;6.788;2023-05-21T03:07:38;14.40;99.90
48604;DHT22;32708;51.212;6.788;2023-05-21T03:10:05;14.40;99.90
48604;DHT22;32708;51.212;6.788;2023-05-21T03:12:31;14.50;99.90
48604;DHT22;32708;51.212;6.788;2023-05-21T03:14:58;14.60;99.90
48604;DHT22;32708;51.212;6.788;2023-05-21T03:17:24;14.50;99.90
48604;DHT22;32708;51.212;6.788;2023-05-21T03:19:50;14.40;99.90
48604;DHT22;32708;51.212;6.788;2023-05-21T03:22:17;14.50;99.90
48604;DHT22;32708;51.212;6.788;2023-05-21T03:24:44;14.40;99.90
48604;DHT22;32708;51.212;6.788;2023-05-21T03:27:11;14.40;99.90
48604;DHT22;32708;51.212;6.788;2023-05-21T03:29:37;14.30;99.90
48604;DHT22;32708;51.212;6.788;2023-05-21T03:32:05;14.40;99.90
48604;DHT22;32708;51.212;6.788;2023-05-21T03:34:32;14.40;99.90
48604;DHT22;32708;51.212;6.788;2023-05-21T03:36:59;14.50;99.90
48604;DHT22;32708;51.212;6.788;2023-05-21T03:39:26;14.40;99.90
48604;DHT22;32708;51.212;6.788;2023-05-21T03:41:54;14.40;99.90
48604;DHT22;32708;51.212;6.788;2023-05-21T03:44:32;14.30;99.90
48604;DHT22;32708;51.212;6.788;2023-05-21T03:47:17;14.40;99.90
48604;DHT22;32708;51.212;6.788;2023-05-21T03:49:43;14.30;99.90
48604;DHT22;32708;51.212;6.788;2023-05-21T03:52:09;14.30;99.90
48604;DHT22;32708;51.212;6.788;2023-05-21T03:54:36;14.30;99.90
48604;DHT22;32708;51.212;6.788;2023-05-21T03:57:05;14.30;99.90
48604;DHT22;32708;51.212;6.788;2023-05-21T03:59:32;14.20;99.90
48604;DHT22;32708;51.212;6.788;2023-05-21T04:01:59;14.20;99.90
48604;DHT22;32708;51.212;6.788;2023-05-21T04:04:25;14.10;99.90
48604;DHT22;32708;51.212;6.788;2023-05-21T04:06:52;14.20;99.90
48604;DHT22;32708;51.212;6.788;2023-05-21T04:09:20;14.20;99.90
48604;DHT22;32708;51.212;6.788;2023-05-21T04:11:47;14.20;99.90
48604;DHT22;32708;51.212;6.788;2023-05-21T04:14:13;14.20;99.90
48604;DHT22;32708;51.212;6.788;2023-05-21T04:16:39;14.30;99.90
48604;DHT22;32708;51.212;6.788;2023-05-21T04:19:08;14.20;99.90
48604;DHT22;32708;51.212;6.788;2023-05-21T04:21:35;14.20;99.90
48604;DHT22;32708;51.212;6.788;2023-05-21T04:24:02;14.10;99.90
48604;DHT22;32708;51.212;6.788;2023-05-21T04:27:00;14.30;99.90
48604;DHT22;32708;51.212;6.788;2023-05-21T04:29:29;14.30;99.90
48604;DHT22;32708;51.212;6.788;2023-05-21T04:31:55;14.30;99.90
48604;DHT22;32708;51.212;6.788;2023-05-21T04:34:21;14.30;99.90
48604;DHT22;32708;51.212;6.788;2023-05-21T04:36:47;14.30;99.90
48604;DHT22;32708;51.212;6.788;2023-05-21T04:39:14;14.30;99.90
48604;DHT22;32708;51.212;6.788;2023-05-21T04:41:41;14.40;99.90
48604;DHT22;32708;51.212;6.788;2023-05-21T04:44:13;14.40;99.90
48604;DHT22;32708;51.212;6.788;2023-05-21T04:46:41;14.40;99.90
48604;DHT22;32708;51.212;6.788;2023-05-21T04:49:10;14.50;99.90
48604;DHT22;32708;51.212;6.788;2023-05-21T04:51:38;14.50;99.90
48604;DHT22;32708;51.212;6.788;2023-05-21T04:54:04;14.50;99.90
48604;DHT22;32708;51.212;6.788;2023-05-21T04:56:31;14.50;99.90
48604;DHT22;32708;51.212;6.788;2023-05-21T04:58:57;14.50;99.90
48604;DHT22;32708;51.212;6.788;2023-05-21T05:01:24;14.60;99.90
48604;DHT22;32708;51.212;6.788;2023-05-21T05:03:52;14.60;99.90
48604;DHT22;32708;51.212;6.788;2023-05-21T05:06:18;14.60;99.90
48604;DHT22;32708;51.212;6.788;2023-05-21T05:08:45;14.50;99.90
48604;DHT22;32708;51.212;6.788;2023-05-21T05:11:12;14.50;99.90
48604;DHT22;32708;51.212;6.788;2023-05-21T05:13:39;14.40;99.90
48604;DHT22;32708;51.212;6.788;2023-05-21T05:16:08;14.40;99.90
48604;DHT22;32708;51.212;6.788;2023-05-21T05:18:35;14.50;99.90
48604;DHT22;32708;51.212;6.788;2023-05-21T05:21:01;14.60;99.90
48604;DHT22;32708;51.212;6.788;2023-05-21T05:23:28;14.60;99.90
48604;DHT22;32708;51.212;6.788;2023-05-21T05:25:54;14.80;99.90
48604;DHT22;32708;51.212;6.788;2023-05-21T05:28:20;14.70;99.90
48604;DHT22;32708;51.212;6.788;2023-05-21T05:30:47;14.70;99.90
48604;DHT22;32708;51.212;6.788;2023-05-21T05:33:24;14.60;99.90
48604;DHT22;32708;51.212;6.788;2023-05-21T05:35:51;14.60;99.90
48604;DHT22;32708;51.212;6.788;2023-05-21T05:38:17;14.70;99.90
48604;DHT22;32708;51.212;6.788;2023-05-21T05:40:43;14.70;99.90
48604;DHT22;32708;51.212;6.788;2023-05-21T05:43:10;14.70;99.90
48604;DHT22;32708;51.212;6.788;2023-05-21T05:45:36;14.70;99.90
48604;DHT22;32708;51.212;6.788;2023-05-21T05:48:08;14.80;99.90
48604;DHT22;32708;51.212;6.788;2023-05-21T05:50:35;14.60;99.90
48604;DHT22;32708;51.212;6.788;2023-05-21T05:53:01;14.80;99.90
48604;DHT22;32708;51.212;6.788;2023-05-21T05:55:28;14.90;99.90
48604;DHT22;32708;51.212;6.788;2023-05-21T05:57:54;14.90;99.90
48604;DHT22;32708;51.212;6.788;2023-05-21T06:00:21;14.90;99.90
48604;DHT22;32708;51.212;6.788;2023-05-21T06:02:49;14.90;99.90
48604;DHT22;32708;51.212;6.788;2023-05-21T06:05:15;14.90;99.90
48604;DHT22;32708;51.212;6.788;2023-05-21T06:07:41;15.00;99.90
48604;DHT22;32708;51.212;6.788;2023-05-21T06:10:08;15.00;99.90
48604;DHT22;32708;51.212;6.788;2023-05-21T06:12:34;14.80;99.90
48604;DHT22;32708;51.212;6.788;2023-05-21T06:15:01;15.00;99.90
48604;DHT22;32708;51.212;6.788;2023-05-21T06:17:30;15.20;99.90
48604;DHT22;32708;51.212;6.788;2023-05-21T06:19:56;15.20;99.90
48604;DHT22;32708;51.212;6.788;2023-05-21T06:22:24;15.30;99.90
48604;DHT22;32708;51.212;6.788;2023-05-21T06:24:50;15.40;99.20
48604;DHT22;32708;51.212;6.788;2023-05-21T06:27:16;15.40;99.90
48604;DHT22;32708;51.212;6.788;2023-05-21T06:29:43;15.30;99.90
48604;DHT22;32708;51.212;6.788;2023-05-21T06:32:09;15.60;97.10
48604;DHT22;32708;51.212;6.788;2023-05-21T06:34:35;15.60;96.30
48604;DHT22;32708;51.212;6.788;2023-05-21T06:37:01;15.50;98.00
48604;DHT22;32708;51.212;6.788;2023-05-21T06:39:28;15.50;98.10
48604;DHT22;32708;51.212;6.788;2023-05-21T06:41:54;15.60;99.10
48604;DHT22;32708;51.212;6.788;2023-05-21T06:44:41;15.90;94.30
48604;DHT22;32708;51.212;6.788;2023-05-21T06:47:19;16.10;90.20
48604;DHT22;32708;51.212;6.788;2023-05-21T06:49:45;16.20;84.30
48604;DHT22;32708;51.212;6.788;2023-05-21T06:52:12;16.30;79.70
48604;DHT22;32708;51.212;6.788;2023-05-21T06:54:38;16.60;67.90
48604;DHT22;32708;51.212;6.788;2023-05-21T06:57:06;16.80;58.60
48604;DHT22;32708;51.212;6.788;2023-05-21T06:59:32;16.50;74.20
48604;DHT22;32708;51.212;6.788;2023-05-21T07:01:59;16.90;57.70
48604;DHT22;32708;51.212;6.788;2023-05-21T07:04:26;16.80;54.70
48604;DHT22;32708;51.212;6.788;2023-05-21T07:06:53;16.80;50.70
48604;DHT22;32708;51.212;6.788;2023-05-21T07:09:19;16.90;55.10
48604;DHT22;32708;51.212;6.788;2023-05-21T07:11:46;16.80;52.20
48604;DHT22;32708;51.212;6.788;2023-05-21T07:14:14;16.70;59.90
48604;DHT22;32708;51.212;6.788;2023-05-21T07:16:41;16.70;63.80
48604;DHT22;32708;51.212;6.788;2023-05-21T07:19:08;16.80;52.60
48604;DHT22;32708;51.212;6.788;2023-05-21T07:24:47;16.60;67.50
48604;DHT22;32708;51.212;6.788;2023-05-21T07:27:14;17.20;52.30
48604;DHT22;32708;51.212;6.788;2023-05-21T07:29:40;17.50;26.30
48604;DHT22;32708;51.212;6.788;2023-05-21T07:32:06;17.50;20.40
48604;DHT22;32708;51.212;6.788;2023-05-21T07:34:34;17.80;17.10
48604;DHT22;32708;51.212;6.788;2023-05-21T07:37:01;17.80;1.00
48604;DHT22;32708;51.212;6.788;2023-05-21T07:39:27;17.70;18.60
48604;DHT22;32708;51.212;6.788;2023-05-21T07:41:53;17.80;5.70
48604;DHT22;32708;51.212;6.788;2023-05-21T07:44:20;17.70;6.90
48604;DHT22;32708;51.212;6.788;2023-05-21T07:46:47;17.50;32.60
48604;DHT22;32708;51.212;6.788;2023-05-21T07:49:13;18.00;8.20
48604;DHT22;32708;51.212;6.788;2023-05-21T07:51:43;18.20;1.00
48604;DHT22;32708;51.212;6.788;2023-05-21T07:54:10;18.20;1.00
48604;DHT22;32708;51.212;6.788;2023-05-21T07:56:36;18.40;1.00
48604;DHT22;32708;51.212;6.788;2023-05-21T07:59:04;18.20;1.00
48604;DHT22;32708;51.212;6.788;2023-05-21T08:01:31;18.30;1.00
48604;DHT22;32708;51.212;6.788;2023-05-21T08:03:58;18.40;1.00
48604;DHT22;32708;51.212;6.788;2023-05-21T08:06:31;18.60;1.00
48604;DHT22;32708;51.212;6.788;2023-05-21T08:09:02;19.10;1.00
48604;DHT22;32708;51.212;6.788;2023-05-21T08:11:31;19.20;99.90
48604;DHT22;32708;51.212;6.788;2023-05-21T08:13:58;19.50;99.90
48604;DHT22;32708;51.212;6.788;2023-05-21T08:16:24;19.50;99.90
48604;DHT22;32708;51.212;6.788;2023-05-21T08:18:50;19.50;99.90
48604;DHT22;32708;51.212;6.788;2023-05-21T08:21:19;19.40;99.90
48604;DHT22;32708;51.212;6.788;2023-05-21T08:23:46;19.70;99.90
48604;DHT22;32708;51.212;6.788;2023-05-21T08:26:16;19.50;99.90
48604;DHT22;32708;51.212;6.788;2023-05-21T08:28:45;19.90;99.90
48604;DHT22;32708;51.212;6.788;2023-05-21T08:31:31;20.20;99.90
48604;DHT22;32708;51.212;6.788;2023-05-21T08:34:16;20.40;56.10
48604;DHT22;32708;51.212;6.788;2023-05-21T08:37:09;20.50;1.00
48604;DHT22;32708;51.212;6.788;2023-05-21T08:40:12;20.70;99.90
48604;DHT22;32708;51.212;6.788;2023-05-21T08:42:51;20.80;1.00
48604;DHT22;32708;51.212;6.788;2023-05-21T08:45:36;21.30;1.00
48604;DHT22;32708;51.212;6.788;2023-05-21T08:48:36;20.80;99.90
48604;DHT22;32708;51.212;6.788;2023-05-21T08:51:08;21.00;99.90
48604;DHT22;32708;51.212;6.788;2023-05-21T08:53:43;20.70;99.90
48604;DHT22;32708;51.212;6.788;2023-05-21T08:56:12;20.60;1.00
48604;DHT22;32708;51.212;6.788;2023-05-21T08:58:52;20.80;99.90
48604;DHT22;32708;51.212;6.788;2023-05-21T09:01:23;20.80;99.90
48604;DHT22;32708;51.212;6.788;2023-05-21T09:03:57;20.40;99.90
48604;DHT22;32708;51.212;6.788;2023-05-21T09:06:26;20.40;99.90
48604;DHT22;32708;51.212;6.788;2023-05-21T09:09:05;20.50;98.10
48604;DHT22;32708;51.212;6.788;2023-05-21T09:11:47;20.30;99.90
48604;DHT22;32708;51.212;6.788;2023-05-21T09:14:14;20.00;99.90
48604;DHT22;32708;51.212;6.788;2023-05-21T09:17:00;20.30;99.90
48604;DHT22;32708;51.212;6.788;2023-05-21T09:19:27;20.60;99.90
48604;DHT22;32708;51.212;6.788;2023-05-21T09:22:01;20.40;99.90
48604;DHT22;32708;51.212;6.788;2023-05-21T09:24:32;20.80;92.10
48604;DHT22;32708;51.212;6.788;2023-05-21T09:26:58;21.00;1.00
48604;DHT22;32708;51.212;6.788;2023-05-21T09:29:25;21.10;99.90
48604;DHT22;32708;51.212;6.788;2023-05-21T09:31:51;21.00;1.00
48604;DHT22;32708;51.212;6.788;2023-05-21T09:34:21;21.00;1.00
48604;DHT22;32708;51.212;6.788;2023-05-21T09:36:49;21.30;99.90
48604;DHT22;32708;51.212;6.788;2023-05-21T09:39:28;21.90;1.00
48604;DHT22;32708;51.212;6.788;2023-05-21T09:41:57;22.10;1.00
48604;DHT22;32708;51.212;6.788;2023-05-21T09:44:24;22.40;1.00
48604;DHT22;32708;51.212;6.788;2023-05-21T09:46:56;22.20;99.90
48604;DHT22;32708;51.212;6.788;2023-05-21T09:49:26;22.20;26.60
48604;DHT22;32708;51.212;6.788;2023-05-21T09:51:57;22.20;26.60
48604;DHT22;32708;51.212;6.788;2023-05-21T09:54:24;21.40;99.90
48604;DHT22;32708;51.212;6.788;2023-05-21T09:56:55;21.80;1.00
48604;DHT22;32708;51.212;6.788;2023-05-21T09:59:22;22.20;99.90
48604;DHT22;32708;51.212;6.788;2023-05-21T10:01:51;22.40;99.90
48604;DHT22;32708;51.212;6.788;2023-05-21T10:04:22;22.70;99.90
48604;DHT22;32708;51.212;6.788;2023-05-21T10:06:50;22.60;99.90
48604;DHT22;32708;51.212;6.788;2023-05-21T10:09:20;22.20;99.90
48604;DHT22;32708;51.212;6.788;2023-05-21T10:11:48;22.30;99.90
48604;DHT22;32708;51.212;6.788;2023-05-21T10:14:19;21.90;91.60
48604;DHT22;32708;51.212;6.788;2023-05-21T10:16:47;21.70;66.40
48604;DHT22;32708;51.212;6.788;2023-05-21T10:19:14;21.70;83.20
48604;DHT22;32708;51.212;6.788;2023-05-21T10:21:41;22.00;99.90
48604;DHT22;32708;51.212;6.788;2023-05-21T10:24:09;22.30;1.00
48604;DHT22;32708;51.212;6.788;2023-05-21T10:26:37;22.50;1.00
48604;DHT22;32708;51.212;6.788;2023-05-21T10:29:07;22.60;99.90
48604;DHT22;32708;51.212;6.788;2023-05-21T10:31:34;22.70;99.90
48604;DHT22;32708;51.212;6.788;2023-05-21T10:34:03;22.20;99.90
48604;DHT22;32708;51.212;6.788;2023-05-21T10:36:31;22.90;1.00
48604;DHT22;32708;51.212;6.788;2023-05-21T10:39:01;22.60;99.90
48604;DHT22;32708;51.212;6.788;2023-05-21T10:41:38;22.60;99.90
48604;DHT22;32708;51.212;6.788;2023-05-21T10:44:29;22.90;1.00
48604;DHT22;32708;51.212;6.788;2023-05-21T10:53:07;23.50;99.90
48604;DHT22;32708;51.212;6.788;2023-05-21T10:58:31;23.90;55.00
48604;DHT22;32708;51.212;6.788;2023-05-21T11:01:09;24.00;1.00
48604;DHT22;32708;51.212;6.788;2023-05-21T11:03:37;24.00;29.80
48604;DHT22;32708;51.212;6.788;2023-05-21T11:06:04;23.90;99.90
48604;DHT22;32708;51.212;6.788;2023-05-21T11:08:31;24.00;99.90
48604;DHT22;32708;51.212;6.788;2023-05-21T11:11:02;23.50;96.50
48604;DHT22;32708;51.212;6.788;2023-05-21T11:13:48;23.50;99.90
48604;DHT22;32708;51.212;6.788;2023-05-21T11:16:15;23.20;99.90
48604;DHT22;32708;51.212;6.788;2023-05-21T11:21:16;23.90;99.90
48604;DHT22;32708;51.212;6.788;2023-05-21T11:24:04;24.20;1.00
48604;DHT22;32708;51.212;6.788;2023-05-21T11:29:13;24.10;99.90
48604;DHT22;32708;51.212;6.788;2023-05-21T11:31:45;24.10;99.90
48604;DHT22;32708;51.212;6.788;2023-05-21T11:34:20;23.70;99.90
48604;DHT22;32708;51.212;6.788;2023-05-21T11:39:52;23.80;99.90
48604;DHT22;32708;51.212;6.788;2023-05-21T11:42:34;24.00;85.10
48604;DHT22;32708;51.212;6.788;2023-05-21T11:45:04;24.60;99.90
48604;DHT22;32708;51.212;6.788;2023-05-21T11:47:31;24.90;57.00
48604;DHT22;32708;51.212;6.788;2023-05-21T11:50:00;24.50;99.90
48604;DHT22;32708;51.212;6.788;2023-05-21T11:52:30;24.20;99.90
48604;DHT22;32708;51.212;6.788;2023-05-21T11:54:58;24.80;99.90
48604;DHT22;32708;51.212;6.788;2023-05-21T11:57:28;24.40;99.90
48604;DHT22;32708;51.212;6.788;2023-05-21T12:01:53;25.10;1.00
48604;DHT22;32708;51.212;6.788;2023-05-21T12:04:20;25.00;1.00
48604;DHT22;32708;51.212;6.788;2023-05-21T12:06:47;25.00;1.00
48604;DHT22;32708;51.212;6.788;2023-05-21T12:09:15;25.30;99.90
48604;DHT22;32708;51.212;6.788;2023-05-21T12:11:42;25.20;99.90
48604;DHT22;32708;51.212;6.788;2023-05-21T12:14:12;25.40;99.90
48604;DHT22;32708;51.212;6.788;2023-05-21T12:16:39;25.50;99.90
48604;DHT22;32708;51.212;6.788;2023-05-21T12:19:06;25.60;99.90
48604;DHT22;32708;51.212;6.788;2023-05-21T12:21:33;25.00;99.90
48604;DHT22;32708;51.212;6.788;2023-05-21T12:24:01;24.90;99.90
48604;DHT22;32708;51.212;6.788;2023-05-21T12:26:28;25.20;99.90
48604;DHT22;32708;51.212;6.788;2023-05-21T12:28:57;25.30;99.90
48604;DHT22;32708;51.212;6.788;2023-05-21T12:31:24;25.30;99.90
48604;DHT22;32708;51.212;6.788;2023-05-21T12:33:52;25.30;99.90
48604;DHT22;32708;51.212;6.788;2023-05-21T12:36:28;25.10;99.90
48604;DHT22;32708;51.212;6.788;2023-05-21T12:38:59;25.30;99.90
48604;DHT22;32708;51.212;6.788;2023-05-21T12:41:25;25.50;99.90
48604;DHT22;32708;51.212;6.788;2023-05-21T12:43:52;25.20;99.90
48604;DHT22;32708;51.212;6.788;2023-05-21T12:46:19;25.30;99.90
48604;DHT22;32708;51.212;6.788;2023-05-21T12:48:48;25.30;99.90
48604;DHT22;32708;51.212;6.788;2023-05-21T12:51:18;25.10;99.90
48604;DHT22;32708;51.212;6.788;2023-05-21T12:53:45;25.20;99.90
48604;DHT22;32708;51.212;6.788;2023-05-21T12:56:13;25.30;99.90
48604;DHT22;32708;51.212;6.788;2023-05-21T12:58:41;25.00;99.90
48604;DHT22;32708;51.212;6.788;2023-05-21T13:01:14;24.50;99.90
48604;DHT22;32708;51.212;6.788;2023-05-21T13:03:41;24.70;1.00
48604;DHT22;32708;51.212;6.788;2023-05-21T13:06:08;24.40;1.00
48604;DHT22;32708;51.212;6.788;2023-05-21T13:08:34;24.40;1.00
48604;DHT22;32708;51.212;6.788;2023-05-21T13:11:02;25.00;1.00
48604;DHT22;32708;51.212;6.788;2023-05-21T13:13:29;25.00;99.90
48604;DHT22;32708;51.212;6.788;2023-05-21T13:15:56;25.30;99.90
48604;DHT22;32708;51.212;6.788;2023-05-21T13:18:25;25.30;99.90
48604;DHT22;32708;51.212;6.788;2023-05-21T13:20:51;25.30;99.90
48604;DHT22;32708;51.212;6.788;2023-05-21T13:23:17;25.30;99.90
48604;DHT22;32708;51.212;6.788;2023-05-21T13:25:44;25.30;99.90
48604;DHT22;32708;51.212;6.788;2023-05-21T13:28:10;25.00;99.90
48604;DHT22;32708;51.212;6.788;2023-05-21T13:30:39;24.60;1.00
48604;DHT22;32708;51.212;6.788;2023-05-21T13:33:06;24.80;1.00
48604;DHT22;32708;51.212;6.788;2023-05-21T13:35:32;24.80;1.00
48604;DHT22;32708;51.212;6.788;2023-05-21T13:37:59;24.90;1.00
48604;DHT22;32708;51.212;6.788;2023-05-21T13:40:25;25.10;1.00
48604;DHT22;32708;51.212;6.788;2023-05-21T13:42:54;25.20;99.90
48604;DHT22;32708;51.212;6.788;2023-05-21T13:45:21;25.00;1.00
48604;DHT22;32708;51.212;6.788;2023-05-21T13:47:50;24.90;1.00
48604;DHT22;32708;51.212;6.788;2023-05-21T13:50:16;24.80;9.00
48604;DHT22;32708;51.212;6.788;2023-05-21T13:52:42;24.80;4.90
48604;DHT22;32708;51.212;6.788;2023-05-21T13:55:09;24.90;1.00
48604;DHT22;32708;51.212;6.788;2023-05-21T13:57:35;24.50;99.90
48604;DHT22;32708;51.212;6.788;2023-05-21T14:00:02;24.40;99.90
48604;DHT22;32708;51.212;6.788;2023-05-21T14:02:33;24.40;99.90
48604;DHT22;32708;51.212;6.788;2023-05-21T14:04:59;24.30;99.90
48604;DHT22;32708;51.212;6.788;2023-05-21T14:07:26;24.40;88.30
48604;DHT22;32708;51.212;6.788;2023-05-21T14:09:52;24.40;1.00
48604;DHT22;32708;51.212;6.788;2023-05-21T14:12:18;24.30;1.00
48604;DHT22;32708;51.212;6.788;2023-05-21T14:14:45;24.40;1.00
48604;DHT22;32708;51.212;6.788;2023-05-21T14:17:14;24.40;99.90
48604;DHT22;32708;51.212;6.788;2023-05-21T14:19:40;24.50;1.00
48604;DHT22;32708;51.212;6.788;2023-05-21T14:22:06;24.80;99.90
48604;DHT22;32708;51.212;6.788;2023-05-21T14:24:32;24.80;99.90
48604;DHT22;32708;51.212;6.788;2023-05-21T14:26:58;24.70;99.90
48604;DHT22;32708;51.212;6.788;2023-05-21T14:29:25;24.40;40.70
48604;DHT22;32708;51.212;6.788;2023-05-21T14:31:51;24.60;99.90
48604;DHT22;32708;51.212;6.788;2023-05-21T14:34:17;24.80;99.90
48604;DHT22;32708;51.212;6.788;2023-05-21T14:36:43;25.00;16.60
48604;DHT22;32708;51.212;6.788;2023-05-21T14:39:09;24.80;99.90
48604;DHT22;32708;51.212;6.788;2023-05-21T14:41:37;24.90;99.90
48604;DHT22;32708;51.212;6.788;2023-05-21T14:44:04;25.20;1.00
48604;DHT22;32708;51.212;6.788;2023-05-21T14:46:30;25.00;18.10
48604;DHT22;32708;51.212;6.788;2023-05-21T14:48:57;25.10;1.00
48604;DHT22;32708;51.212;6.788;2023-05-21T14:51:24;25.10;20.50
48604;DHT22;32708;51.212;6.788;2023-05-21T14:53:50;25.00;1.00
48604;DHT22;32708;51.212;6.788;2023-05-21T14:56:16;24.90;1.00
48604;DHT22;32708;51.212;6.788;2023-05-21T14:58:46;24.80;31.60
48604;DHT22;32708;51.212;6.788;2023-05-21T15:01:12;24.70;99.90
48604;DHT22;32708;51.212;6.788;2023-05-21T15:03:39;24.80;99.90
48604;DHT22;32708;51.212;6.788;2023-05-21T15:06:05;24.90;4.40
48604;DHT22;32708;51.212;6.788;2023-05-21T15:08:31;24.70;61.30
48604;DHT22;32708;51.212;6.788;2023-05-21T15:10:57;25.00;61.90
48604;DHT22;32708;51.212;6.788;2023-05-21T15:13:23;25.00;23.50
48604;DHT22;32708;51.212;6.788;2023-05-21T15:15:50;24.90;1.00
48604;DHT22;32708;51.212;6.788;2023-05-21T15:18:16;24.80;1.00
48604;DHT22;32708;51.212;6.788;2023-05-21T15:20:42;25.00;5.40
48604;DHT22;32708;51.212;6.788;2023-05-21T15:23:09;25.00;10.90
48604;DHT22;32708;51.212;6.788;2023-05-21T15:25:35;25.00;22.00
48604;DHT22;32708;51.212;6.788;2023-05-21T15:28:01;24.80;99.90
48604;DHT22;32708;51.212;6.788;2023-05-21T15:30:27;24.90;36.30
48604;DHT22;32708;51.212;6.788;2023-05-21T15:32:53;24.60;99.90
48604;DHT22;32708;51.212;6.788;2023-05-21T15:35:20;24.90;99.90
48604;DHT22;32708;51.212;6.788;2023-05-21T15:37:46;24.90;99.90
48604;DHT22;32708;51.212;6.788;2023-05-21T15:40:12;24.70;99.90
48604;DHT22;32708;51.212;6.788;2023-05-21T15:42:38;24.40;41.90
48604;DHT22;32708;51.212;6.788;2023-05-21T15:45:05;24.40;99.90
48604;DHT22;32708;51.212;6.788;2023-05-21T15:47:31;24.60;1.00
48604;DHT22;32708;51.212;6.788;2023-05-21T15:49:57;24.90;99.90
48604;DHT22;32708;51.212;6.788;2023-05-21T15:52:24;24.80;99.90
48604;DHT22;32708;51.212;6.788;2023-05-21T15:54:51;24.70;1.00
48604;DHT22;32708;51.212;6.788;2023-05-21T15:57:18;24.70;1.00
48604;DHT22;32708;51.212;6.788;2023-05-21T15:59:44;24.70;86.60
48604;DHT22;32708;51.212;6.788;2023-05-21T16:02:11;24.80;1.00
48604;DHT22;32708;51.212;6.788;2023-05-21T16:04:37;24.70;99.90